Archival Weather

Luke Afb

Glendale, Arizona (KLUF)

Report from: Friday, April 19, 2024 9:55 AM MST
Current time: Monday, June 24, 2024 3:59 AM MST

Current weather – Weather history – Daily summaries
Weather forecast

Temperature25.8°C (78.4°F)
Dew point-0.3°C (31.5°F)
Winds Calm
Visibility10 mi. (16.1 km)
Clouds Few clouds 20,000 ft. (6,096 m)
Altimeter29.85 in.Hg (1011 mB)
Relative humidity18 %
Density altitude1,463 ft. (446 m)
Sea-level pressure101.0 kPa (1010 mB, 29.82 in.Hg)
Remarks System requires maintenance
Automated weather observing station with precipitation discriminator
Flight conditions Visual Meteorological Conditions
Raw dataKLUF 191655Z 00000KT 10SM FEW200 26/M00 A2985 RMK AO2A SLP097 T02581003 $
An error has occurred. This application may no longer respond until reloaded. Reload 🗙